sensor_id;sensor_type;location;lat;lon;timestamp;P1;durP1;ratioP1;P2;durP2;ratioP2
34064;SDS011;20339;49.754;20.158;2023-05-17T00:02:06;14.80;;;13.20;;
34064;SDS011;20339;49.754;20.158;2023-05-17T00:04:37;13.90;;;11.70;;
34064;SDS011;20339;49.754;20.158;2023-05-17T00:07:08;12.40;;;11.00;;
34064;SDS011;20339;49.754;20.158;2023-05-17T00:09:39;11.80;;;10.30;;
34064;SDS011;20339;49.754;20.158;2023-05-17T00:12:09;13.60;;;11.80;;
34064;SDS011;20339;49.754;20.158;2023-05-17T00:14:40;14.80;;;12.90;;
34064;SDS011;20339;49.754;20.158;2023-05-17T00:17:11;14.00;;;12.50;;
34064;SDS011;20339;49.754;20.158;2023-05-17T00:19:42;16.00;;;11.60;;
34064;SDS011;20339;49.754;20.158;2023-05-17T00:22:13;13.40;;;11.80;;
34064;SDS011;20339;49.754;20.158;2023-05-17T00:24:44;13.10;;;11.70;;
34064;SDS011;20339;49.754;20.158;2023-05-17T00:27:15;12.50;;;11.20;;
34064;SDS011;20339;49.754;20.158;2023-05-17T00:29:45;13.10;;;11.70;;
34064;SDS011;20339;49.754;20.158;2023-05-17T00:32:17;12.50;;;10.90;;
34064;SDS011;20339;49.754;20.158;2023-05-17T00:34:48;13.00;;;11.50;;
34064;SDS011;20339;49.754;20.158;2023-05-17T00:37:18;11.50;;;10.10;;
34064;SDS011;20339;49.754;20.158;2023-05-17T00:39:49;10.80;;;9.60;;
34064;SDS011;20339;49.754;20.158;2023-05-17T00:42:20;9.80;;;8.80;;
34064;SDS011;20339;49.754;20.158;2023-05-17T00:44:52;9.30;;;8.40;;
34064;SDS011;20339;49.754;20.158;2023-05-17T00:47:23;8.50;;;6.90;;
34064;SDS011;20339;49.754;20.158;2023-05-17T00:49:53;8.20;;;6.50;;
34064;SDS011;20339;49.754;20.158;2023-05-17T00:52:24;7.40;;;6.60;;
34064;SDS011;20339;49.754;20.158;2023-05-17T00:54:56;8.30;;;7.00;;
34064;SDS011;20339;49.754;20.158;2023-05-17T00:57:27;7.70;;;6.90;;
34064;SDS011;20339;49.754;20.158;2023-05-17T00:59:58;8.70;;;7.70;;
34064;SDS011;20339;49.754;20.158;2023-05-17T01:02:30;12.00;;;10.40;;
34064;SDS011;20339;49.754;20.158;2023-05-17T01:05:01;8.20;;;7.30;;
34064;SDS011;20339;49.754;20.158;2023-05-17T01:07:32;11.90;;;9.80;;
34064;SDS011;20339;49.754;20.158;2023-05-17T01:10:04;12.70;;;11.40;;
34064;SDS011;20339;49.754;20.158;2023-05-17T01:12:40;15.00;;;13.20;;
34064;SDS011;20339;49.754;20.158;2023-05-17T01:15:26;14.50;;;12.40;;
34064;SDS011;20339;49.754;20.158;2023-05-17T01:18:02;15.30;;;13.60;;
34064;SDS011;20339;49.754;20.158;2023-05-17T01:20:41;12.40;;;11.10;;
34064;SDS011;20339;49.754;20.158;2023-05-17T01:23:22;9.40;;;8.40;;
34064;SDS011;20339;49.754;20.158;2023-05-17T01:25:59;9.80;;;8.10;;
34064;SDS011;20339;49.754;20.158;2023-05-17T01:28:36;9.60;;;8.60;;
34064;SDS011;20339;49.754;20.158;2023-05-17T01:31:09;8.20;;;7.30;;
34064;SDS011;20339;49.754;20.158;2023-05-17T01:33:41;8.00;;;7.20;;
34064;SDS011;20339;49.754;20.158;2023-05-17T01:36:12;11.60;;;7.90;;
34064;SDS011;20339;49.754;20.158;2023-05-17T01:38:43;10.50;;;8.60;;
34064;SDS011;20339;49.754;20.158;2023-05-17T01:41:14;10.60;;;8.50;;
34064;SDS011;20339;49.754;20.158;2023-05-17T01:43:54;5.50;;;5.00;;
34064;SDS011;20339;49.754;20.158;2023-05-17T01:46:30;4.90;;;4.50;;
34064;SDS011;20339;49.754;20.158;2023-05-17T01:49:10;5.00;;;4.50;;
34064;SDS011;20339;49.754;20.158;2023-05-17T01:51:53;5.30;;;4.70;;
34064;SDS011;20339;49.754;20.158;2023-05-17T01:54:38;4.30;;;4.00;;
34064;SDS011;20339;49.754;20.158;2023-05-17T01:57:15;5.10;;;4.60;;
34064;SDS011;20339;49.754;20.158;2023-05-17T01:59:53;5.70;;;5.00;;
34064;SDS011;20339;49.754;20.158;2023-05-17T02:02:27;5.70;;;4.80;;
34064;SDS011;20339;49.754;20.158;2023-05-17T02:04:59;5.50;;;5.00;;
34064;SDS011;20339;49.754;20.158;2023-05-17T02:07:29;5.70;;;5.20;;
34064;SDS011;20339;49.754;20.158;2023-05-17T02:10:00;5.40;;;4.90;;
34064;SDS011;20339;49.754;20.158;2023-05-17T02:12:32;6.00;;;5.40;;
34064;SDS011;20339;49.754;20.158;2023-05-17T02:15:03;7.10;;;6.40;;
34064;SDS011;20339;49.754;20.158;2023-05-17T02:17:38;7.40;;;6.20;;
34064;SDS011;20339;49.754;20.158;2023-05-17T02:20:09;5.70;;;5.10;;
34064;SDS011;20339;49.754;20.158;2023-05-17T02:22:40;4.80;;;4.10;;
34064;SDS011;20339;49.754;20.158;2023-05-17T02:25:11;2.60;;;2.30;;
34064;SDS011;20339;49.754;20.158;2023-05-17T02:27:42;2.60;;;2.30;;
34064;SDS011;20339;49.754;20.158;2023-05-17T02:30:14;2.80;;;2.50;;
34064;SDS011;20339;49.754;20.158;2023-05-17T02:32:45;2.20;;;2.00;;
34064;SDS011;20339;49.754;20.158;2023-05-17T02:35:16;2.50;;;2.30;;
34064;SDS011;20339;49.754;20.158;2023-05-17T02:37:47;2.20;;;2.00;;
34064;SDS011;20339;49.754;20.158;2023-05-17T02:40:19;2.80;;;2.60;;
34064;SDS011;20339;49.754;20.158;2023-05-17T02:42:50;2.50;;;1.90;;
34064;SDS011;20339;49.754;20.158;2023-05-17T02:45:20;1.90;;;1.80;;
34064;SDS011;20339;49.754;20.158;2023-05-17T02:47:51;2.60;;;1.80;;
34064;SDS011;20339;49.754;20.158;2023-05-17T02:50:22;1.90;;;1.70;;
34064;SDS011;20339;49.754;20.158;2023-05-17T02:52:53;4.20;;;1.70;;
34064;SDS011;20339;49.754;20.158;2023-05-17T02:55:24;1.70;;;1.60;;
34064;SDS011;20339;49.754;20.158;2023-05-17T02:57:55;1.80;;;1.70;;
34064;SDS011;20339;49.754;20.158;2023-05-17T03:00:25;1.80;;;1.70;;
34064;SDS011;20339;49.754;20.158;2023-05-17T03:02:56;1.80;;;1.70;;
34064;SDS011;20339;49.754;20.158;2023-05-17T03:05:28;2.10;;;2.00;;
34064;SDS011;20339;49.754;20.158;2023-05-17T03:07:59;2.40;;;2.20;;
34064;SDS011;20339;49.754;20.158;2023-05-17T03:10:30;2.10;;;1.90;;
34064;SDS011;20339;49.754;20.158;2023-05-17T03:13:01;2.20;;;2.00;;
34064;SDS011;20339;49.754;20.158;2023-05-17T03:15:31;2.40;;;2.20;;
34064;SDS011;20339;49.754;20.158;2023-05-17T03:18:02;2.60;;;1.90;;
34064;SDS011;20339;49.754;20.158;2023-05-17T03:20:33;2.60;;;1.90;;
34064;SDS011;20339;49.754;20.158;2023-05-17T03:23:04;2.50;;;2.00;;
34064;SDS011;20339;49.754;20.158;2023-05-17T03:25:35;1.90;;;1.80;;
34064;SDS011;20339;49.754;20.158;2023-05-17T03:28:11;1.60;;;1.50;;
34064;SDS011;20339;49.754;20.158;2023-05-17T03:30:49;2.00;;;1.90;;
34064;SDS011;20339;49.754;20.158;2023-05-17T03:33:20;2.00;;;1.90;;
34064;SDS011;20339;49.754;20.158;2023-05-17T03:35:51;3.50;;;2.40;;
34064;SDS011;20339;49.754;20.158;2023-05-17T03:38:21;2.70;;;2.50;;
34064;SDS011;20339;49.754;20.158;2023-05-17T03:40:52;3.30;;;2.40;;
34064;SDS011;20339;49.754;20.158;2023-05-17T03:43:24;2.40;;;2.20;;
34064;SDS011;20339;49.754;20.158;2023-05-17T03:45:55;2.70;;;2.50;;
34064;SDS011;20339;49.754;20.158;2023-05-17T03:48:26;2.70;;;2.50;;
34064;SDS011;20339;49.754;20.158;2023-05-17T03:50:57;2.30;;;2.20;;
34064;SDS011;20339;49.754;20.158;2023-05-17T03:53:29;2.00;;;1.80;;
34064;SDS011;20339;49.754;20.158;2023-05-17T03:56:00;2.00;;;1.90;;
34064;SDS011;20339;49.754;20.158;2023-05-17T03:58:31;2.30;;;1.80;;
34064;SDS011;20339;49.754;20.158;2023-05-17T04:01:04;1.90;;;1.80;;
34064;SDS011;20339;49.754;20.158;2023-05-17T04:03:34;1.80;;;1.60;;
34064;SDS011;20339;49.754;20.158;2023-05-17T04:06:07;1.70;;;1.60;;
34064;SDS011;20339;49.754;20.158;2023-05-17T04:08:38;1.80;;;1.60;;
34064;SDS011;20339;49.754;20.158;2023-05-17T04:11:09;1.70;;;1.60;;
34064;SDS011;20339;49.754;20.158;2023-05-17T04:13:40;2.10;;;1.90;;
34064;SDS011;20339;49.754;20.158;2023-05-17T04:16:12;2.00;;;1.70;;
34064;SDS011;20339;49.754;20.158;2023-05-17T04:18:43;2.20;;;2.00;;
34064;SDS011;20339;49.754;20.158;2023-05-17T04:21:14;2.10;;;2.00;;
34064;SDS011;20339;49.754;20.158;2023-05-17T04:23:45;2.10;;;2.00;;
34064;SDS011;20339;49.754;20.158;2023-05-17T04:26:16;2.20;;;2.00;;
34064;SDS011;20339;49.754;20.158;2023-05-17T04:28:48;2.60;;;2.20;;
34064;SDS011;20339;49.754;20.158;2023-05-17T04:31:19;1.80;;;1.70;;
34064;SDS011;20339;49.754;20.158;2023-05-17T04:33:50;1.90;;;1.70;;
34064;SDS011;20339;49.754;20.158;2023-05-17T04:36:21;2.50;;;2.30;;
34064;SDS011;20339;49.754;20.158;2023-05-17T04:38:53;2.60;;;2.40;;
34064;SDS011;20339;49.754;20.158;2023-05-17T04:41:24;1.60;;;1.40;;
34064;SDS011;20339;49.754;20.158;2023-05-17T04:43:55;1.30;;;1.20;;
34064;SDS011;20339;49.754;20.158;2023-05-17T04:46:26;1.50;;;1.10;;
34064;SDS011;20339;49.754;20.158;2023-05-17T04:48:58;3.10;;;1.60;;
34064;SDS011;20339;49.754;20.158;2023-05-17T04:51:30;1.40;;;1.30;;
34064;SDS011;20339;49.754;20.158;2023-05-17T04:54:01;0.70;;;0.70;;
34064;SDS011;20339;49.754;20.158;2023-05-17T04:56:37;1.90;;;1.20;;
34064;SDS011;20339;49.754;20.158;2023-05-17T04:59:08;1.70;;;1.60;;
34064;SDS011;20339;49.754;20.158;2023-05-17T05:01:40;1.80;;;1.70;;
34064;SDS011;20339;49.754;20.158;2023-05-17T05:04:11;1.40;;;1.30;;
34064;SDS011;20339;49.754;20.158;2023-05-17T05:06:42;1.30;;;1.20;;
34064;SDS011;20339;49.754;20.158;2023-05-17T05:09:13;1.00;;;1.00;;
34064;SDS011;20339;49.754;20.158;2023-05-17T05:11:44;1.00;;;1.00;;
34064;SDS011;20339;49.754;20.158;2023-05-17T05:14:15;1.60;;;1.10;;
34064;SDS011;20339;49.754;20.158;2023-05-17T05:16:46;1.10;;;1.00;;
34064;SDS011;20339;49.754;20.158;2023-05-17T05:19:17;1.30;;;1.00;;
34064;SDS011;20339;49.754;20.158;2023-05-17T05:21:48;1.20;;;1.00;;
34064;SDS011;20339;49.754;20.158;2023-05-17T05:24:19;1.30;;;1.10;;
34064;SDS011;20339;49.754;20.158;2023-05-17T05:26:50;0.90;;;0.90;;
34064;SDS011;20339;49.754;20.158;2023-05-17T05:29:21;1.10;;;1.10;;
34064;SDS011;20339;49.754;20.158;2023-05-17T05:31:52;1.60;;;1.40;;
34064;SDS011;20339;49.754;20.158;2023-05-17T05:34:23;0.80;;;0.80;;
34064;SDS011;20339;49.754;20.158;2023-05-17T05:36:56;1.20;;;1.00;;
34064;SDS011;20339;49.754;20.158;2023-05-17T05:39:27;1.20;;;1.10;;
34064;SDS011;20339;49.754;20.158;2023-05-17T05:41:58;1.10;;;1.00;;
34064;SDS011;20339;49.754;20.158;2023-05-17T05:44:30;0.80;;;0.70;;
34064;SDS011;20339;49.754;20.158;2023-05-17T05:47:01;1.20;;;1.10;;
34064;SDS011;20339;49.754;20.158;2023-05-17T05:49:32;1.30;;;1.20;;
34064;SDS011;20339;49.754;20.158;2023-05-17T05:52:03;2.50;;;1.40;;
34064;SDS011;20339;49.754;20.158;2023-05-17T05:54:35;1.60;;;1.50;;
34064;SDS011;20339;49.754;20.158;2023-05-17T05:57:06;1.40;;;1.30;;
34064;SDS011;20339;49.754;20.158;2023-05-17T05:59:37;1.00;;;1.00;;
34064;SDS011;20339;49.754;20.158;2023-05-17T06:02:08;1.00;;;0.90;;
34064;SDS011;20339;49.754;20.158;2023-05-17T06:04:39;1.40;;;1.30;;
34064;SDS011;20339;49.754;20.158;2023-05-17T06:07:10;1.50;;;1.30;;
34064;SDS011;20339;49.754;20.158;2023-05-17T06:09:41;0.90;;;0.90;;
34064;SDS011;20339;49.754;20.158;2023-05-17T06:12:12;1.40;;;1.30;;
34064;SDS011;20339;49.754;20.158;2023-05-17T06:14:43;1.30;;;1.20;;
34064;SDS011;20339;49.754;20.158;2023-05-17T06:17:14;1.40;;;1.30;;
34064;SDS011;20339;49.754;20.158;2023-05-17T06:19:45;1.10;;;1.10;;
34064;SDS011;20339;49.754;20.158;2023-05-17T06:22:16;1.40;;;1.30;;
34064;SDS011;20339;49.754;20.158;2023-05-17T06:24:47;1.20;;;1.10;;
34064;SDS011;20339;49.754;20.158;2023-05-17T06:27:18;1.00;;;0.90;;
34064;SDS011;20339;49.754;20.158;2023-05-17T06:29:49;0.70;;;0.70;;
34064;SDS011;20339;49.754;20.158;2023-05-17T06:32:20;0.90;;;0.90;;
34064;SDS011;20339;49.754;20.158;2023-05-17T06:34:51;0.80;;;0.80;;
34064;SDS011;20339;49.754;20.158;2023-05-17T06:37:23;0.70;;;0.70;;
34064;SDS011;20339;49.754;20.158;2023-05-17T06:39:56;0.60;;;0.50;;
34064;SDS011;20339;49.754;20.158;2023-05-17T06:42:33;0.30;;;0.30;;
34064;SDS011;20339;49.754;20.158;2023-05-17T06:45:04;0.50;;;0.50;;
34064;SDS011;20339;49.754;20.158;2023-05-17T06:47:37;0.40;;;0.40;;
34064;SDS011;20339;49.754;20.158;2023-05-17T06:50:08;0.50;;;0.30;;
34064;SDS011;20339;49.754;20.158;2023-05-17T06:52:40;0.30;;;0.30;;
34064;SDS011;20339;49.754;20.158;2023-05-17T06:55:11;1.00;;;0.50;;
34064;SDS011;20339;49.754;20.158;2023-05-17T06:57:42;1.00;;;0.40;;
34064;SDS011;20339;49.754;20.158;2023-05-17T07:00:14;0.60;;;0.60;;
34064;SDS011;20339;49.754;20.158;2023-05-17T07:02:46;0.50;;;0.50;;
34064;SDS011;20339;49.754;20.158;2023-05-17T07:05:17;0.70;;;0.70;;
34064;SDS011;20339;49.754;20.158;2023-05-17T07:07:48;0.40;;;0.40;;
34064;SDS011;20339;49.754;20.158;2023-05-17T07:10:19;0.40;;;0.40;;
34064;SDS011;20339;49.754;20.158;2023-05-17T07:12:51;0.60;;;0.60;;
34064;SDS011;20339;49.754;20.158;2023-05-17T07:15:22;0.40;;;0.40;;
34064;SDS011;20339;49.754;20.158;2023-05-17T07:17:53;0.60;;;0.60;;
34064;SDS011;20339;49.754;20.158;2023-05-17T07:20:26;1.00;;;0.90;;
34064;SDS011;20339;49.754;20.158;2023-05-17T07:22:57;0.50;;;0.50;;
34064;SDS011;20339;49.754;20.158;2023-05-17T07:25:28;0.40;;;0.40;;
34064;SDS011;20339;49.754;20.158;2023-05-17T07:27:59;0.50;;;0.40;;
34064;SDS011;20339;49.754;20.158;2023-05-17T07:30:30;0.50;;;0.50;;
34064;SDS011;20339;49.754;20.158;2023-05-17T07:33:02;1.00;;;0.70;;
34064;SDS011;20339;49.754;20.158;2023-05-17T07:35:33;0.60;;;0.50;;
34064;SDS011;20339;49.754;20.158;2023-05-17T07:38:04;0.30;;;0.30;;
34064;SDS011;20339;49.754;20.158;2023-05-17T07:40:35;0.70;;;0.50;;
34064;SDS011;20339;49.754;20.158;2023-05-17T07:43:06;1.40;;;0.80;;
34064;SDS011;20339;49.754;20.158;2023-05-17T07:45:37;1.00;;;0.70;;
34064;SDS011;20339;49.754;20.158;2023-05-17T07:48:08;1.50;;;0.50;;
34064;SDS011;20339;49.754;20.158;2023-05-17T07:50:39;0.50;;;0.40;;
34064;SDS011;20339;49.754;20.158;2023-05-17T07:53:11;0.30;;;0.30;;
34064;SDS011;20339;49.754;20.158;2023-05-17T07:55:42;0.60;;;0.40;;
34064;SDS011;20339;49.754;20.158;2023-05-17T07:58:13;0.90;;;0.40;;
34064;SDS011;20339;49.754;20.158;2023-05-17T08:00:44;0.50;;;0.40;;
34064;SDS011;20339;49.754;20.158;2023-05-17T08:03:16;0.80;;;0.80;;
34064;SDS011;20339;49.754;20.158;2023-05-17T08:05:48;0.90;;;0.60;;
34064;SDS011;20339;49.754;20.158;2023-05-17T08:08:19;0.40;;;0.20;;
34064;SDS011;20339;49.754;20.158;2023-05-17T08:10:50;0.40;;;0.30;;
34064;SDS011;20339;49.754;20.158;2023-05-17T08:13:21;0.30;;;0.30;;
34064;SDS011;20339;49.754;20.158;2023-05-17T08:15:52;1.30;;;0.50;;
34064;SDS011;20339;49.754;20.158;2023-05-17T08:18:26;0.20;;;0.20;;
34064;SDS011;20339;49.754;20.158;2023-05-17T08:20:57;0.40;;;0.30;;
34064;SDS011;20339;49.754;20.158;2023-05-17T08:23:28;0.40;;;0.40;;
34064;SDS011;20339;49.754;20.158;2023-05-17T08:25:59;1.30;;;0.40;;
34064;SDS011;20339;49.754;20.158;2023-05-17T08:28:31;0.50;;;0.30;;
34064;SDS011;20339;49.754;20.158;2023-05-17T08:31:02;0.30;;;0.20;;
34064;SDS011;20339;49.754;20.158;2023-05-17T08:33:34;0.90;;;0.40;;
34064;SDS011;20339;49.754;20.158;2023-05-17T08:36:06;0.90;;;0.30;;
34064;SDS011;20339;49.754;20.158;2023-05-17T08:38:38;0.10;;;0.10;;
34064;SDS011;20339;49.754;20.158;2023-05-17T08:41:09;0.40;;;0.40;;
34064;SDS011;20339;49.754;20.158;2023-05-17T08:43:41;0.20;;;0.20;;
34064;SDS011;20339;49.754;20.158;2023-05-17T08:46:12;0.40;;;0.20;;
34064;SDS011;20339;49.754;20.158;2023-05-17T08:48:45;0.20;;;0.20;;
34064;SDS011;20339;49.754;20.158;2023-05-17T08:51:20;0.30;;;0.20;;
34064;SDS011;20339;49.754;20.158;2023-05-17T08:53:51;0.50;;;0.40;;
34064;SDS011;20339;49.754;20.158;2023-05-17T08:56:23;2.80;;;0.60;;
34064;SDS011;20339;49.754;20.158;2023-05-17T08:58:58;0.50;;;0.40;;
34064;SDS011;20339;49.754;20.158;2023-05-17T09:01:29;1.10;;;0.60;;
34064;SDS011;20339;49.754;20.158;2023-05-17T09:04:00;0.50;;;0.50;;
34064;SDS011;20339;49.754;20.158;2023-05-17T09:06:32;0.30;;;0.30;;
34064;SDS011;20339;49.754;20.158;2023-05-17T09:09:04;3.00;;;1.80;;
34064;SDS011;20339;49.754;20.158;2023-05-17T09:11:35;0.50;;;0.50;;
34064;SDS011;20339;49.754;20.158;2023-05-17T09:14:06;0.80;;;0.50;;
34064;SDS011;20339;49.754;20.158;2023-05-17T09:16:37;0.50;;;0.30;;
34064;SDS011;20339;49.754;20.158;2023-05-17T09:19:13;0.30;;;0.30;;
34064;SDS011;20339;49.754;20.158;2023-05-17T09:21:45;5.20;;;4.10;;
34064;SDS011;20339;49.754;20.158;2023-05-17T09:24:18;1.70;;;1.60;;
34064;SDS011;20339;49.754;20.158;2023-05-17T09:27:01;2.10;;;2.00;;
34064;SDS011;20339;49.754;20.158;2023-05-17T09:29:33;0.90;;;0.90;;
34064;SDS011;20339;49.754;20.158;2023-05-17T09:32:12;0.90;;;0.60;;
34064;SDS011;20339;49.754;20.158;2023-05-17T09:34:44;0.70;;;0.40;;
34064;SDS011;20339;49.754;20.158;2023-05-17T09:37:16;0.40;;;0.30;;
34064;SDS011;20339;49.754;20.158;2023-05-17T09:39:47;1.10;;;0.40;;
34064;SDS011;20339;49.754;20.158;2023-05-17T09:42:18;0.70;;;0.40;;
34064;SDS011;20339;49.754;20.158;2023-05-17T09:44:55;0.20;;;0.20;;
34064;SDS011;20339;49.754;20.158;2023-05-17T09:47:27;0.10;;;0.10;;
34064;SDS011;20339;49.754;20.158;2023-05-17T09:50:00;0.40;;;0.30;;
34064;SDS011;20339;49.754;20.158;2023-05-17T09:52:34;0.30;;;0.30;;
34064;SDS011;20339;49.754;20.158;2023-05-17T09:55:08;1.20;;;0.20;;
34064;SDS011;20339;49.754;20.158;2023-05-17T09:57:40;0.30;;;0.30;;
34064;SDS011;20339;49.754;20.158;2023-05-17T10:00:12;0.30;;;0.20;;
34064;SDS011;20339;49.754;20.158;2023-05-17T10:02:46;0.60;;;0.30;;
34064;SDS011;20339;49.754;20.158;2023-05-17T10:05:18;0.20;;;0.20;;
34064;SDS011;20339;49.754;20.158;2023-05-17T10:07:50;0.90;;;0.30;;
34064;SDS011;20339;49.754;20.158;2023-05-17T10:10:24;0.40;;;0.30;;
34064;SDS011;20339;49.754;20.158;2023-05-17T10:12:57;0.20;;;0.20;;
34064;SDS011;20339;49.754;20.158;2023-05-17T10:15:31;0.20;;;0.20;;
34064;SDS011;20339;49.754;20.158;2023-05-17T10:18:03;1.20;;;0.40;;
34064;SDS011;20339;49.754;20.158;2023-05-17T10:20:36;0.80;;;0.50;;
34064;SDS011;20339;49.754;20.158;2023-05-17T10:23:08;0.60;;;0.20;;
34064;SDS011;20339;49.754;20.158;2023-05-17T10:25:41;0.30;;;0.20;;
34064;SDS011;20339;49.754;20.158;2023-05-17T10:28:12;1.40;;;0.10;;
34064;SDS011;20339;49.754;20.158;2023-05-17T10:30:45;0.20;;;0.20;;
34064;SDS011;20339;49.754;20.158;2023-05-17T10:33:19;0.20;;;0.20;;
34064;SDS011;20339;49.754;20.158;2023-05-17T10:35:50;1.10;;;0.20;;
34064;SDS011;20339;49.754;20.158;2023-05-17T10:38:23;0.20;;;0.20;;
34064;SDS011;20339;49.754;20.158;2023-05-17T10:40:55;1.10;;;0.40;;
34064;SDS011;20339;49.754;20.158;2023-05-17T10:43:28;0.20;;;0.20;;
34064;SDS011;20339;49.754;20.158;2023-05-17T10:46:01;0.40;;;0.40;;
34064;SDS011;20339;49.754;20.158;2023-05-17T10:48:41;0.30;;;0.20;;
34064;SDS011;20339;49.754;20.158;2023-05-17T10:51:18;0.30;;;0.30;;
34064;SDS011;20339;49.754;20.158;2023-05-17T10:54:08;0.40;;;0.40;;
34064;SDS011;20339;49.754;20.158;2023-05-17T10:56:47;0.80;;;0.50;;
34064;SDS011;20339;49.754;20.158;2023-05-17T10:59:20;0.30;;;0.30;;
34064;SDS011;20339;49.754;20.158;2023-05-17T11:01:56;0.70;;;0.60;;
34064;SDS011;20339;49.754;20.158;2023-05-17T11:04:30;0.80;;;0.80;;
34064;SDS011;20339;49.754;20.158;2023-05-17T11:10:02;0.80;;;0.70;;
34064;SDS011;20339;49.754;20.158;2023-05-17T11:12:38;0.80;;;0.50;;
34064;SDS011;20339;49.754;20.158;2023-05-17T11:15:11;1.10;;;0.60;;
34064;SDS011;20339;49.754;20.158;2023-05-17T11:17:50;0.50;;;0.50;;
34064;SDS011;20339;49.754;20.158;2023-05-17T11:23:03;0.60;;;0.60;;
34064;SDS011;20339;49.754;20.158;2023-05-17T11:25:41;1.50;;;0.60;;
34064;SDS011;20339;49.754;20.158;2023-05-17T11:28:19;0.80;;;0.80;;
34064;SDS011;20339;49.754;20.158;2023-05-17T11:30:51;0.50;;;0.50;;
34064;SDS011;20339;49.754;20.158;2023-05-17T11:33:37;1.00;;;0.80;;
34064;SDS011;20339;49.754;20.158;2023-05-17T11:36:14;0.90;;;0.90;;
34064;SDS011;20339;49.754;20.158;2023-05-17T11:38:49;1.50;;;1.10;;
34064;SDS011;20339;49.754;20.158;2023-05-17T11:41:37;0.80;;;0.80;;
34064;SDS011;20339;49.754;20.158;2023-05-17T11:44:17;1.70;;;1.20;;
34064;SDS011;20339;49.754;20.158;2023-05-17T11:47:02;1.30;;;1.00;;
34064;SDS011;20339;49.754;20.158;2023-05-17T11:49:36;1.10;;;0.80;;
34064;SDS011;20339;49.754;20.158;2023-05-17T11:52:09;1.70;;;1.00;;
34064;SDS011;20339;49.754;20.158;2023-05-17T11:54:40;1.00;;;0.80;;
34064;SDS011;20339;49.754;20.158;2023-05-17T11:57:13;1.20;;;1.10;;
34064;SDS011;20339;49.754;20.158;2023-05-17T11:59:45;1.50;;;1.40;;
34064;SDS011;20339;49.754;20.158;2023-05-17T12:02:29;1.40;;;1.20;;
34064;SDS011;20339;49.754;20.158;2023-05-17T12:05:01;1.00;;;0.90;;
34064;SDS011;20339;49.754;20.158;2023-05-17T12:07:32;2.20;;;1.30;;
34064;SDS011;20339;49.754;20.158;2023-05-17T12:10:04;1.20;;;1.00;;
34064;SDS011;20339;49.754;20.158;2023-05-17T12:12:40;1.20;;;1.10;;
34064;SDS011;20339;49.754;20.158;2023-05-17T12:15:17;1.30;;;1.20;;
34064;SDS011;20339;49.754;20.158;2023-05-17T12:17:48;1.40;;;1.10;;
34064;SDS011;20339;49.754;20.158;2023-05-17T12:20:22;1.20;;;1.10;;
34064;SDS011;20339;49.754;20.158;2023-05-17T12:22:54;0.90;;;0.90;;
34064;SDS011;20339;49.754;20.158;2023-05-17T12:25:25;1.10;;;0.90;;
34064;SDS011;20339;49.754;20.158;2023-05-17T12:30:45;0.70;;;0.70;;
34064;SDS011;20339;49.754;20.158;2023-05-17T12:33:20;0.80;;;0.80;;
34064;SDS011;20339;49.754;20.158;2023-05-17T12:35:52;1.20;;;1.10;;
34064;SDS011;20339;49.754;20.158;2023-05-17T12:38:24;1.40;;;1.00;;
34064;SDS011;20339;49.754;20.158;2023-05-17T12:40:59;0.70;;;0.70;;
34064;SDS011;20339;49.754;20.158;2023-05-17T12:43:33;1.00;;;0.70;;
34064;SDS011;20339;49.754;20.158;2023-05-17T12:46:09;1.40;;;1.10;;
34064;SDS011;20339;49.754;20.158;2023-05-17T12:48:42;1.50;;;1.30;;
34064;SDS011;20339;49.754;20.158;2023-05-17T12:51:13;1.40;;;1.30;;
34064;SDS011;20339;49.754;20.158;2023-05-17T12:53:47;1.20;;;1.10;;
34064;SDS011;20339;49.754;20.158;2023-05-17T12:56:20;2.10;;;1.30;;
34064;SDS011;20339;49.754;20.158;2023-05-17T12:59:03;1.00;;;0.90;;
34064;SDS011;20339;49.754;20.158;2023-05-17T13:01:36;1.00;;;0.90;;
34064;SDS011;20339;49.754;20.158;2023-05-17T13:04:08;2.10;;;1.60;;
34064;SDS011;20339;49.754;20.158;2023-05-17T13:06:44;1.40;;;1.20;;
34064;SDS011;20339;49.754;20.158;2023-05-17T13:09:16;2.60;;;1.40;;
34064;SDS011;20339;49.754;20.158;2023-05-17T13:11:52;1.10;;;0.90;;
34064;SDS011;20339;49.754;20.158;2023-05-17T13:14:34;2.40;;;1.90;;
34064;SDS011;20339;49.754;20.158;2023-05-17T13:17:07;1.20;;;1.10;;
34064;SDS011;20339;49.754;20.158;2023-05-17T13:19:39;4.70;;;2.90;;
34064;SDS011;20339;49.754;20.158;2023-05-17T13:22:11;2.30;;;1.50;;
34064;SDS011;20339;49.754;20.158;2023-05-17T13:24:43;8.10;;;3.90;;
34064;SDS011;20339;49.754;20.158;2023-05-17T13:27:15;1.40;;;1.20;;
34064;SDS011;20339;49.754;20.158;2023-05-17T13:29:46;1.30;;;1.20;;
34064;SDS011;20339;49.754;20.158;2023-05-17T13:32:17;1.20;;;1.10;;
34064;SDS011;20339;49.754;20.158;2023-05-17T13:34:49;1.30;;;0.90;;
34064;SDS011;20339;49.754;20.158;2023-05-17T13:37:20;1.50;;;1.30;;
34064;SDS011;20339;49.754;20.158;2023-05-17T13:39:51;1.60;;;1.10;;
34064;SDS011;20339;49.754;20.158;2023-05-17T13:42:23;1.20;;;1.10;;
34064;SDS011;20339;49.754;20.158;2023-05-17T13:44:55;1.30;;;1.20;;
34064;SDS011;20339;49.754;20.158;2023-05-17T13:47:28;1.00;;;0.90;;
34064;SDS011;20339;49.754;20.158;2023-05-17T13:49:59;1.30;;;0.90;;
34064;SDS011;20339;49.754;20.158;2023-05-17T13:52:31;1.20;;;1.10;;
34064;SDS011;20339;49.754;20.158;2023-05-17T13:55:02;1.20;;;1.00;;
34064;SDS011;20339;49.754;20.158;2023-05-17T13:57:35;1.40;;;0.80;;
34064;SDS011;20339;49.754;20.158;2023-05-17T14:00:07;1.40;;;1.30;;
34064;SDS011;20339;49.754;20.158;2023-05-17T14:02:40;1.60;;;0.80;;
34064;SDS011;20339;49.754;20.158;2023-05-17T14:05:11;1.00;;;0.90;;
34064;SDS011;20339;49.754;20.158;2023-05-17T14:07:42;3.60;;;1.30;;
34064;SDS011;20339;49.754;20.158;2023-05-17T14:10:14;2.20;;;1.60;;
34064;SDS011;20339;49.754;20.158;2023-05-17T14:12:45;2.50;;;1.50;;
34064;SDS011;20339;49.754;20.158;2023-05-17T14:15:16;2.90;;;1.80;;
34064;SDS011;20339;49.754;20.158;2023-05-17T14:17:47;1.80;;;1.50;;
34064;SDS011;20339;49.754;20.158;2023-05-17T14:20:19;1.90;;;1.40;;
34064;SDS011;20339;49.754;20.158;2023-05-17T14:22:50;1.80;;;1.30;;
34064;SDS011;20339;49.754;20.158;2023-05-17T14:25:22;2.00;;;1.30;;
34064;SDS011;20339;49.754;20.158;2023-05-17T14:27:54;2.50;;;2.00;;
34064;SDS011;20339;49.754;20.158;2023-05-17T14:30:25;2.10;;;1.90;;
34064;SDS011;20339;49.754;20.158;2023-05-17T14:32:59;2.20;;;1.80;;
34064;SDS011;20339;49.754;20.158;2023-05-17T14:35:30;2.50;;;1.80;;
34064;SDS011;20339;49.754;20.158;2023-05-17T14:38:01;2.20;;;1.80;;
34064;SDS011;20339;49.754;20.158;2023-05-17T14:40:32;4.30;;;2.90;;
34064;SDS011;20339;49.754;20.158;2023-05-17T14:43:03;6.20;;;4.50;;
34064;SDS011;20339;49.754;20.158;2023-05-17T14:45:34;4.70;;;3.60;;
34064;SDS011;20339;49.754;20.158;2023-05-17T14:48:07;2.70;;;2.40;;
34064;SDS011;20339;49.754;20.158;2023-05-17T14:50:38;2.80;;;2.50;;
34064;SDS011;20339;49.754;20.158;2023-05-17T14:53:09;2.60;;;2.40;;
34064;SDS011;20339;49.754;20.158;2023-05-17T14:55:40;2.70;;;2.30;;
34064;SDS011;20339;49.754;20.158;2023-05-17T14:58:11;3.60;;;1.90;;
34064;SDS011;20339;49.754;20.158;2023-05-17T15:00:42;2.10;;;1.80;;
34064;SDS011;20339;49.754;20.158;2023-05-17T15:03:14;3.20;;;2.90;;
34064;SDS011;20339;49.754;20.158;2023-05-17T15:05:46;3.80;;;2.50;;
34064;SDS011;20339;49.754;20.158;2023-05-17T15:08:23;2.30;;;2.00;;
34064;SDS011;20339;49.754;20.158;2023-05-17T15:10:54;2.80;;;2.10;;
34064;SDS011;20339;49.754;20.158;2023-05-17T15:13:26;3.60;;;2.30;;